Time;durP1;ratioP1;P1;durP2;ratioP2;P2;SDS_P1;SDS_P2;PMS_P1;PMS_P2;Temp;Humidity;BMP_temperature;BMP_pressure;BME280_temperature;BME280_humidity;BME280_pressure;Samples;Min_cycle;Max_cycle;Signal;HPM_P1;HPM_P2
2021/01/10 00:00:44;;;;;;;9.90;3.53;;;0.00;90.70;;;;;;5037454;28;20304;-82
2021/01/10 00:03:14;;;;;;;11.50;4.68;;;0.00;90.90;;;;;;5036384;28;20058;-81
2021/01/10 00:05:42;;;;;;;11.50;4.78;;;0.00;90.10;;;;;;5042051;28;20191;-82
2021/01/10 00:08:09;;;;;;;8.93;3.95;;;0.00;90.10;;;;;;5026386;28;20042;-82
2021/01/10 00:10:38;;;;;;;11.68;5.65;;;0.10;89.70;;;;;;5038593;28;20431;-85
2021/01/10 00:13:06;;;;;;;12.38;5.47;;;0.00;90.10;;;;;;5046260;28;20049;-82
2021/01/10 00:15:33;;;;;;;16.33;7.30;;;-3276.70;90.30;;;;;;5046193;28;20229;-82
2021/01/10 00:18:05;;;;;;;11.35;5.22;;;-3276.60;90.60;;;;;;5062137;28;20056;-84
2021/01/10 00:20:33;;;;;;;10.77;5.18;;;0.00;90.30;;;;;;5041458;28;20065;-85
2021/01/10 00:23:05;;;;;;;10.35;4.85;;;0.00;90.30;;;;;;5044347;28;20044;-82
2021/01/10 00:25:35;;;;;;;10.90;4.47;;;-3276.70;90.50;;;;;;5045031;28;20127;-84
2021/01/10 00:28:06;;;;;;;9.55;5.40;;;-3276.70;90.70;;;;;;5041243;28;20053;-83
2021/01/10 00:30:33;;;;;;;;;;;-3276.70;90.90;;;;;;5043121;28;20049;-84
2021/01/10 00:33:00;;;;;;;8.38;4.47;;;-3276.60;90.90;;;;;;5041549;28;19984;-83
2021/01/10 00:35:30;;;;;;;11.98;5.18;;;-3276.70;91.00;;;;;;5019533;28;20384;-82
2021/01/10 00:37:59;;;;;;;9.55;4.78;;;-3276.60;91.10;;;;;;5041725;28;20080;-83
2021/01/10 00:40:27;;;;;;;10.68;4.30;;;-3276.70;91.00;;;;;;5037456;28;20108;-83
2021/01/10 00:42:54;;;;;;;11.35;5.18;;;-3276.70;90.90;;;;;;5023317;28;20049;-84
2021/01/10 00:45:24;;;;;;;10.75;5.60;;;-3276.70;91.30;;;;;;5041647;28;20061;-83
2021/01/10 00:47:58;;;;;;;12.38;5.07;;;0.00;90.90;;;;;;5042007;28;20057;-85
2021/01/10 00:50:34;;;;;;;;;;;0.00;90.80;;;;;;5042586;28;20161;-82
2021/01/10 00:53:05;;;;;;;9.32;4.93;;;0.00;90.80;;;;;;5061089;28;20175;-85
2021/01/10 00:55:33;;;;;;;11.00;4.55;;;0.00;90.70;;;;;;5038943;28;20359;-82
2021/01/10 00:58:00;;;;;;;10.57;5.65;;;0.00;90.70;;;;;;5041332;28;20120;-83
2021/01/10 01:00:29;;;;;;;7.82;4.03;;;0.10;90.50;;;;;;5042794;28;20049;-82
2021/01/10 01:02:56;;;;;;;13.98;4.95;;;0.10;90.60;;;;;;5037618;28;20041;-82
2021/01/10 01:05:26;;;;;;;12.70;5.15;;;0.10;90.20;;;;;;5042981;28;20222;-82
2021/01/10 01:07:57;;;;;;;10.18;4.22;;;0.00;90.60;;;;;;5042221;28;20042;-82
2021/01/10 01:10:50;;;;;;;10.45;4.57;;;0.00;90.60;;;;;;5039933;28;20150;-84
2021/01/10 01:13:19;;;;;;;10.13;5.32;;;0.00;90.60;;;;;;5047197;28;20260;-82
2021/01/10 01:15:50;;;;;;;9.55;4.25;;;0.00;90.70;;;;;;5042783;28;20059;-82
2021/01/10 01:18:18;;;;;;;9.80;5.55;;;0.00;90.90;;;;;;5045510;28;20049;-82
2021/01/10 01:20:45;;;;;;;10.45;4.05;;;0.00;90.60;;;;;;5053655;28;20101;-83
2021/01/10 01:23:13;;;;;;;9.25;5.07;;;0.00;90.60;;;;;;5022963;28;20240;-82
2021/01/10 01:25:40;;;;;;;11.05;4.22;;;0.00;90.40;;;;;;5036767;28;20096;-83
2021/01/10 01:28:09;;;;;;;11.32;4.63;;;0.00;90.50;;;;;;5038708;28;20064;-84
2021/01/10 01:30:37;;;;;;;9.68;4.53;;;0.10;90.60;;;;;;5038214;28;20249;-83
2021/01/10 01:33:05;;;;;;;8.23;4.80;;;0.00;90.60;;;;;;5042361;28;20064;-82
2021/01/10 01:35:33;;;;;;;11.18;4.65;;;0.10;90.60;;;;;;5034858;28;20589;-81
2021/01/10 01:38:00;;;;;;;7.93;3.78;;;0.10;90.50;;;;;;5034274;28;20060;-82
2021/01/10 01:40:28;;;;;;;9.68;3.88;;;0.10;90.60;;;;;;5037874;28;20049;-83
2021/01/10 01:42:55;;;;;;;7.47;4.13;;;0.30;90.70;;;;;;5034704;28;20319;-83
2021/01/10 01:45:22;;;;;;;10.18;4.45;;;0.50;89.60;;;;;;5050078;28;20057;-84
2021/01/10 01:47:48;;;;;;;12.80;4.75;;;0.50;89.40;;;;;;5022155;28;20068;-84
2021/01/10 01:50:17;;;;;;;9.98;3.50;;;0.40;89.30;;;;;;5053330;28;20045;-85
2021/01/10 01:52:44;;;;;;;12.20;4.45;;;0.40;89.60;;;;;;5039985;28;20041;-85
2021/01/10 01:55:13;;;;;;;9.73;3.90;;;0.40;89.60;;;;;;5040860;28;20045;-82
2021/01/10 01:57:41;;;;;;;8.20;4.03;;;0.40;89.30;;;;;;5020097;28;20060;-84
2021/01/10 02:00:10;;;;;;;7.47;3.95;;;0.40;89.40;;;;;;5039892;28;20064;-84
2021/01/10 02:02:43;;;;;;;8.73;4.30;;;0.30;89.70;;;;;;5043551;28;20076;-85
2021/01/10 02:05:14;;;;;;;9.48;4.03;;;0.30;89.90;;;;;;5042772;28;20372;-85
2021/01/10 02:07:51;;;;;;;9.57;4.60;;;0.20;90.40;;;;;;5041605;28;20132;-82
2021/01/10 02:10:23;;;;;;;9.93;4.47;;;0.30;90.70;;;;;;5038890;28;20352;-83
2021/01/10 02:12:51;;;;;;;11.30;4.78;;;0.40;89.90;;;;;;5019902;28;20049;-84
2021/01/10 02:15:22;;;;;;;10.05;5.32;;;0.40;89.70;;;;;;5034173;28;20057;-82
2021/01/10 02:17:51;;;;;;;11.93;5.05;;;0.40;89.60;;;;;;5039380;28;20103;-82
2021/01/10 02:20:25;;;;;;;13.65;5.28;;;0.40;90.00;;;;;;5038315;28;20061;-83
2021/01/10 02:22:56;;;;;;;9.43;4.72;;;0.40;89.60;;;;;;5036225;28;20109;-83
2021/01/10 02:25:23;;;;;;;;;;;0.30;90.10;;;;;;5033851;28;20061;-84
2021/01/10 02:27:50;;;;;;;11.23;4.20;;;0.30;90.10;;;;;;5040488;28;19996;-82
2021/01/10 02:30:19;;;;;;;14.13;4.93;;;0.30;90.30;;;;;;5032030;28;20060;-85
2021/01/10 02:32:49;;;;;;;8.05;4.43;;;0.30;90.10;;;;;;5035479;28;20058;-83
2021/01/10 02:35:17;;;;;;;8.70;4.85;;;0.10;90.10;;;;;;5031634;28;20299;-82
2021/01/10 02:38:22;;;;;;;9.57;4.18;;;0.00;90.20;;;;;;5017644;28;20064;-84
2021/01/10 02:41:01;;;;;;;12.98;3.83;;;-3276.70;90.90;;;;;;5012151;28;20053;-82
2021/01/10 02:43:33;;;;;;;7.65;3.85;;;-3276.60;90.90;;;;;;5041413;28;20068;-85
2021/01/10 02:46:11;;;;;;;10.65;4.70;;;-3276.70;90.90;;;;;;5035120;28;20337;-83
2021/01/10 02:48:38;;;;;;;10.40;4.57;;;-3276.70;90.80;;;;;;5054707;28;20349;-86
2021/01/10 02:51:07;;;;;;;16.23;4.95;;;-3276.60;91.00;;;;;;5034158;28;20125;-83
2021/01/10 02:53:35;;;;;;;10.15;4.65;;;-3276.50;91.50;;;;;;5026735;28;20053;-82
2021/01/10 02:56:06;;;;;;;12.18;5.00;;;-3276.50;91.70;;;;;;5035310;28;20053;-83
2021/01/10 02:58:37;;;;;;;10.50;5.57;;;-3276.50;91.50;;;;;;5015673;28;20057;-85
2021/01/10 03:01:08;;;;;;;7.65;4.35;;;-3276.50;91.60;;;;;;5034713;28;20058;-82
2021/01/10 03:03:35;;;;;;;8.63;4.93;;;-3276.60;91.50;;;;;;5016935;28;20049;-83
2021/01/10 03:06:04;;;;;;;9.25;4.72;;;-3276.60;91.50;;;;;;5033086;28;20381;-83
2021/01/10 03:08:31;;;;;;;10.20;4.13;;;-3276.70;91.40;;;;;;5037013;28;20052;-83
2021/01/10 03:10:58;;;;;;;13.15;5.82;;;-3276.70;91.20;;;;;;5035472;28;20086;-82
2021/01/10 03:13:28;;;;;;;9.98;3.78;;;-3276.60;91.50;;;;;;5039553;28;20049;-82
2021/01/10 03:15:55;;;;;;;10.93;5.50;;;-3276.70;91.70;;;;;;5036547;28;20045;-86
2021/01/10 03:18:23;;;;;;;8.20;3.85;;;-3276.60;91.20;;;;;;5019313;28;20061;-87
2021/01/10 03:20:50;;;;;;;9.30;4.03;;;-3276.60;91.50;;;;;;5032935;28;20064;-85
2021/01/10 03:23:18;;;;;;;7.57;4.50;;;-3276.60;91.40;;;;;;5047886;28;20813;-82
2021/01/10 03:25:45;;;;;;;10.65;5.00;;;-3276.60;91.50;;;;;;5038389;28;20057;-84
2021/01/10 03:28:12;;;;;;;10.85;4.22;;;-3276.60;91.30;;;;;;5018793;28;20095;-84
2021/01/10 03:30:39;;;;;;;10.20;4.75;;;-3276.60;91.50;;;;;;5035078;28;20076;-82
2021/01/10 03:33:07;;;;;;;12.80;5.57;;;-3276.60;91.40;;;;;;5038033;28;20042;-82
2021/01/10 03:35:35;;;;;;;10.50;5.07;;;-3276.60;91.30;;;;;;5020894;28;20053;-82
2021/01/10 03:38:03;;;;;;;10.95;4.93;;;-3276.60;91.20;;;;;;5039237;28;20252;-84
2021/01/10 03:40:33;;;;;;;9.20;4.22;;;-3276.60;91.20;;;;;;5038767;28;20344;-82
2021/01/10 03:43:01;;;;;;;16.73;5.85;;;-3276.60;91.00;;;;;;5037625;28;20037;-84
2021/01/10 03:45:28;;;;;;;12.18;4.95;;;-3276.60;91.20;;;;;;5018792;28;20057;-84
2021/01/10 03:47:56;;;;;;;12.75;5.10;;;-3276.60;91.30;;;;;;5018887;28;20046;-84
2021/01/10 03:50:22;;;;;;;10.73;4.88;;;-3276.60;91.20;;;;;;5023448;28;20068;-82
2021/01/10 03:52:49;;;;;;;13.23;5.93;;;-3276.60;91.30;;;;;;5036862;28;20041;-83
2021/01/10 03:55:18;;;;;;;10.82;4.03;;;-3276.60;91.30;;;;;;5033390;28;20118;-84
2021/01/10 03:57:44;;;;;;;10.27;4.85;;;-3276.70;91.20;;;;;;5040004;28;20233;-84
2021/01/10 04:00:12;;;;;;;8.32;4.15;;;-3276.70;91.10;;;;;;5040757;28;20061;-82
2021/01/10 04:02:39;;;;;;;11.20;4.95;;;0.00;90.40;;;;;;5037398;28;20037;-84
2021/01/10 04:05:09;;;;;;;7.80;4.25;;;0.00;90.80;;;;;;5022270;28;20053;-82
2021/01/10 04:07:35;;;;;;;9.30;4.43;;;-3276.70;90.60;;;;;;5039685;28;20053;-83
2021/01/10 04:10:04;;;;;;;12.82;4.70;;;-3276.70;90.90;;;;;;5040889;28;20057;-83
2021/01/10 04:12:32;;;;;;;12.50;4.93;;;-3276.70;90.60;;;;;;5043389;28;20041;-85
2021/01/10 04:14:58;;;;;;;10.45;4.53;;;-3276.60;91.10;;;;;;5034885;28;20116;-84
2021/01/10 04:17:31;;;;;;;9.77;4.95;;;-3276.60;91.40;;;;;;5037373;28;20084;-83
2021/01/10 04:19:58;;;;;;;11.45;4.95;;;-3276.60;91.30;;;;;;5041338;28;20049;-80
2021/01/10 04:22:25;;;;;;;13.82;6.05;;;-3276.60;91.10;;;;;;5042187;28;20168;-82
2021/01/10 04:24:52;;;;;;;10.23;5.68;;;-3276.60;91.00;;;;;;5038435;28;20049;-81
2021/01/10 04:27:20;;;;;;;9.77;5.03;;;-3276.60;91.10;;;;;;5038368;28;20057;-83
2021/01/10 04:29:47;;;;;;;13.45;5.75;;;-3276.60;91.10;;;;;;5038264;28;20064;-82
2021/01/10 04:32:13;;;;;;;10.57;5.57;;;-3276.60;91.20;;;;;;5046139;28;20106;-82
2021/01/10 04:34:40;;;;;;;8.38;4.35;;;-3276.70;90.80;;;;;;5046551;28;20245;-81
2021/01/10 04:37:07;;;;;;;9.38;4.65;;;-3276.70;90.80;;;;;;5043976;28;20049;-82
2021/01/10 04:39:35;;;;;;;12.38;5.70;;;-3276.70;91.00;;;;;;5037980;28;20056;-83
2021/01/10 04:42:03;;;;;;;8.48;4.60;;;0.00;91.20;;;;;;5037612;28;20065;-82
2021/01/10 04:44:30;;;;;;;9.32;4.30;;;0.00;90.80;;;;;;5048520;28;20052;-82
2021/01/10 04:46:58;;;;;;;8.93;4.20;;;0.00;90.60;;;;;;5030459;28;20113;-81
2021/01/10 04:49:25;;;;;;;9.52;5.35;;;0.00;90.70;;;;;;5037586;28;20264;-86
2021/01/10 04:51:53;;;;;;;7.93;4.93;;;-3276.70;90.60;;;;;;5026297;28;20053;-81
2021/01/10 04:54:22;;;;;;;8.77;4.22;;;-3276.70;91.20;;;;;;5045184;28;20046;-82
2021/01/10 04:56:51;;;;;;;9.10;4.75;;;-3276.70;91.20;;;;;;5045305;28;20075;-82
2021/01/10 04:59:22;;;;;;;10.10;5.43;;;0.00;91.20;;;;;;5042577;28;20241;-83
2021/01/10 05:01:53;;;;;;;9.00;4.20;;;-3276.70;90.90;;;;;;5045190;28;20058;-84
2021/01/10 05:04:20;;;;;;;;;;;-3276.70;91.50;;;;;;5043379;28;20053;-82
2021/01/10 05:06:47;;;;;;;7.25;3.58;;;-3276.70;91.40;;;;;;5049174;28;19948;-85
2021/01/10 05:09:14;;;;;;;10.32;5.10;;;0.00;91.00;;;;;;5046969;28;20221;-82
2021/01/10 05:11:41;;;;;;;8.93;4.90;;;0.00;91.00;;;;;;5043766;28;22013;-82
2021/01/10 05:14:08;;;;;;;9.85;4.97;;;0.00;91.10;;;;;;5045873;28;20056;-82
2021/01/10 05:16:38;;;;;;;8.93;4.25;;;0.00;91.00;;;;;;5044263;28;20049;-82
2021/01/10 05:19:05;;;;;;;11.98;4.13;;;0.00;91.10;;;;;;5029563;28;20041;-82
2021/01/10 05:21:35;;;;;;;10.90;5.18;;;0.20;91.00;;;;;;5047500;28;20068;-81
2021/01/10 05:24:06;;;;;;;9.68;4.40;;;0.30;90.30;;;;;;5044725;28;20071;-82
2021/01/10 05:26:35;;;;;;;12.00;5.47;;;0.10;90.30;;;;;;5047129;28;20061;-82
2021/01/10 05:29:10;;;;;;;10.65;4.43;;;0.00;90.90;;;;;;5048215;28;20084;-82
2021/01/10 05:31:40;;;;;;;8.27;4.28;;;0.00;91.40;;;;;;5047598;28;20132;-83
2021/01/10 05:34:07;;;;;;;10.52;5.53;;;0.00;90.90;;;;;;5060795;28;20049;-82
2021/01/10 05:36:35;;;;;;;11.32;4.43;;;0.00;91.20;;;;;;5039635;28;20121;-84
2021/01/10 05:39:18;;;;;;;10.40;5.35;;;0.00;91.20;;;;;;5052180;28;20041;-84
2021/01/10 05:41:53;;;;;;;9.32;5.22;;;0.00;91.20;;;;;;5045064;28;20061;-83
2021/01/10 05:44:24;;;;;;;11.93;6.15;;;0.00;91.30;;;;;;5043121;28;20349;-84
2021/01/10 05:47:05;;;;;;;12.38;4.28;;;0.00;91.40;;;;;;5046814;28;20061;-82
2021/01/10 05:49:32;;;;;;;11.15;4.43;;;0.00;91.10;;;;;;5038977;28;20068;-81
2021/01/10 05:52:08;;;;;;;10.13;5.57;;;0.00;91.10;;;;;;5042625;28;20276;-82
2021/01/10 05:54:36;;;;;;;8.88;4.43;;;0.10;91.50;;;;;;5046068;28;20049;-83
2021/01/10 05:57:04;;;;;;;9.43;4.43;;;0.20;91.20;;;;;;5039069;28;20049;-84
2021/01/10 05:59:34;;;;;;;8.60;4.43;;;0.30;90.70;;;;;;5050183;28;20118;-83
2021/01/10 06:02:04;;;;;;;10.77;3.70;;;0.30;90.60;;;;;;5043861;28;20053;-82
2021/01/10 06:04:31;;;;;;;11.68;4.43;;;0.30;90.60;;;;;;5038545;28;20073;-83
2021/01/10 06:06:58;;;;;;;10.93;5.55;;;0.30;90.20;;;;;;5057689;28;20056;-82
2021/01/10 06:09:26;;;;;;;11.75;6.38;;;0.40;90.40;;;;;;5038578;28;20068;-83
2021/01/10 06:11:54;;;;;;;11.75;5.13;;;0.30;90.30;;;;;;5044389;28;20052;-83
2021/01/10 06:14:24;;;;;;;10.75;4.47;;;0.40;90.10;;;;;;5041132;28;20076;-83
2021/01/10 06:16:56;;;;;;;10.77;5.43;;;0.30;90.20;;;;;;5045869;28;20048;-83
2021/01/10 06:19:28;;;;;;;9.68;4.05;;;0.20;90.40;;;;;;5043997;28;20060;-84
2021/01/10 06:21:57;;;;;;;10.32;5.05;;;0.30;90.40;;;;;;5043317;28;20061;-83
2021/01/10 06:24:25;;;;;;;9.75;4.47;;;0.30;90.50;;;;;;5022562;28;20356;-82
2021/01/10 06:27:03;;;;;;;10.13;4.20;;;0.30;90.30;;;;;;5042143;28;20065;-82
2021/01/10 06:29:39;;;;;;;8.27;4.80;;;0.20;90.40;;;;;;5025109;28;20052;-83
2021/01/10 06:32:11;;;;;;;11.70;5.55;;;0.20;90.40;;;;;;5059814;28;20057;-83
2021/01/10 06:34:44;;;;;;;11.20;5.28;;;0.20;90.40;;;;;;5040162;28;21628;-84
2021/01/10 06:37:11;;;;;;;10.55;4.90;;;0.20;90.30;;;;;;5045135;28;20360;-84
2021/01/10 06:39:46;;;;;;;12.43;5.05;;;0.10;90.50;;;;;;5041625;28;21243;-82
2021/01/10 06:42:13;;;;;;;13.68;5.47;;;0.00;91.10;;;;;;5041468;28;20274;-83
2021/01/10 06:44:45;;;;;;;9.70;4.90;;;0.10;91.20;;;;;;5043225;28;20363;-84
2021/01/10 06:47:18;;;;;;;9.63;4.40;;;0.10;90.90;;;;;;5043858;28;20049;-84
2021/01/10 06:49:46;;;;;;;10.68;4.47;;;0.00;91.40;;;;;;5038946;28;20053;-82
2021/01/10 06:52:14;;;;;;;12.77;4.97;;;0.00;91.60;;;;;;5054594;28;20361;-82
2021/01/10 06:54:46;;;;;;;13.35;5.07;;;0.00;91.60;;;;;;5040591;28;20319;-82
2021/01/10 06:57:13;;;;;;;10.13;4.05;;;0.10;90.80;;;;;;5044114;28;20052;-82
2021/01/10 06:59:59;;;;;;;13.75;6.10;;;0.10;90.50;;;;;;5044680;28;20064;-84
2021/01/10 07:02:28;;;;;;;10.75;5.10;;;0.10;90.80;;;;;;5039593;28;20049;-84
2021/01/10 07:05:00;;;;;;;10.13;5.13;;;0.20;90.50;;;;;;5042635;28;20052;-83
2021/01/10 07:07:42;;;;;;;18.73;4.70;;;0.20;90.10;;;;;;5042182;28;20384;-82
2021/01/10 07:10:12;;;;;;;13.23;4.55;;;0.10;90.40;;;;;;5037630;28;20368;-82
2021/01/10 07:12:40;;;;;;;10.68;4.55;;;0.10;90.30;;;;;;5037047;28;20056;-81
2021/01/10 07:15:27;;;;;;;10.55;5.90;;;0.10;90.30;;;;;;5035892;28;20049;-84
2021/01/10 07:18:10;;;;;;;11.02;4.90;;;0.00;91.00;;;;;;5019737;28;20053;-83
2021/01/10 07:20:40;;;;;;;7.13;4.40;;;-3276.60;91.60;;;;;;5039258;28;20045;-81
2021/01/10 07:23:27;;;;;;;8.93;4.78;;;-3276.60;92.00;;;;;;5041347;28;20045;-84
2021/01/10 07:25:55;;;;;;;10.25;3.95;;;-3276.60;92.00;;;;;;5041943;28;20045;-84
2021/01/10 07:28:40;;;;;;;18.63;6.30;;;-3276.70;91.80;;;;;;5035117;28;20119;-84
2021/01/10 07:31:20;;;;;;;9.23;4.40;;;-3276.70;91.80;;;;;;5041620;28;20099;-84
2021/01/10 07:34:12;;;;;;;9.13;4.72;;;-3276.70;91.70;;;;;;5019931;28;20275;-84
2021/01/10 07:36:58;;;;;;;13.40;4.93;;;0.00;91.60;;;;;;5040508;28;20266;-84
2021/01/10 07:39:27;;;;;;;9.30;3.92;;;0.00;91.60;;;;;;5032709;28;20132;-84
2021/01/10 07:42:14;;;;;;;8.98;5.10;;;0.10;91.10;;;;;;5048846;28;20325;-84
2021/01/10 07:44:47;;;;;;;10.23;5.00;;;0.00;91.10;;;;;;5020285;28;20361;-84
2021/01/10 07:47:14;;;;;;;11.35;5.80;;;0.00;90.70;;;;;;5038250;28;20046;-84
2021/01/10 07:49:52;;;;;;;10.68;4.85;;;0.00;90.80;;;;;;5019190;28;20402;-83
2021/01/10 07:52:50;;;;;;;11.45;6.22;;;0.00;91.00;;;;;;5034033;28;20348;-85
2021/01/10 07:55:28;;;;;;;10.80;5.43;;;0.00;91.30;;;;;;5018514;28;22599;-84
2021/01/10 07:58:16;;;;;;;12.80;5.40;;;0.00;91.40;;;;;;5033516;28;20072;-81
2021/01/10 08:00:53;;;;;;;10.30;4.68;;;0.00;91.30;;;;;;5044280;28;20054;-84
2021/01/10 08:03:23;;;;;;;10.25;5.68;;;0.20;91.00;;;;;;5033523;28;20050;-84
2021/01/10 08:06:07;;;;;;;11.38;5.85;;;0.30;89.90;;;;;;5040047;28;20050;-83
2021/01/10 08:08:42;;;;;;;15.98;5.68;;;0.40;89.40;;;;;;5041690;28;20106;-83
2021/01/10 08:11:10;;;;;;;11.95;4.28;;;0.40;89.00;;;;;;5044957;28;20041;-82
2021/01/10 08:13:39;;;;;;;10.85;4.90;;;0.50;89.10;;;;;;5043104;28;20061;-83
2021/01/10 08:16:07;;;;;;;14.00;5.50;;;0.50;89.10;;;;;;5043319;28;20049;-82
2021/01/10 08:18:37;;;;;;;13.10;4.78;;;0.40;88.60;;;;;;5043790;28;20053;-83
2021/01/10 08:21:08;;;;;;;9.93;4.82;;;0.50;88.70;;;;;;5041738;28;20061;-83
2021/01/10 08:23:35;;;;;;;9.68;4.03;;;0.60;88.40;;;;;;5026803;28;20050;-84
2021/01/10 08:26:07;;;;;;;9.40;4.32;;;0.70;88.00;;;;;;5059663;28;20059;-82
2021/01/10 08:28:36;;;;;;;12.90;6.20;;;0.60;88.00;;;;;;5045507;28;20057;-81
2021/01/10 08:31:06;;;;;;;13.70;4.55;;;0.60;88.20;;;;;;5043609;28;20058;-81
2021/01/10 08:33:33;;;;;;;13.68;5.45;;;0.70;87.80;;;;;;5048057;28;20069;-84
2021/01/10 08:36:14;;;;;;;8.95;4.95;;;0.70;87.70;;;;;;5043553;28;20058;-82
2021/01/10 08:39:00;;;;;;;14.20;6.22;;;0.70;87.70;;;;;;5042494;28;20053;-86
2021/01/10 08:41:30;;;;;;;11.50;4.85;;;0.80;87.50;;;;;;5028067;28;20049;-83
2021/01/10 08:43:59;;;;;;;13.68;5.13;;;0.80;87.50;;;;;;5049154;28;20076;-83
2021/01/10 08:46:27;;;;;;;11.23;5.65;;;0.70;87.30;;;;;;5043614;28;20045;-83
2021/01/10 08:48:54;;;;;;;10.35;3.75;;;0.80;87.50;;;;;;5044175;28;20056;-82
2021/01/10 08:51:30;;;;;;;15.07;4.65;;;0.90;87.10;;;;;;5059468;28;20053;-83
2021/01/10 08:53:57;;;;;;;10.55;4.97;;;0.80;87.10;;;;;;5042173;28;20061;-82
2021/01/10 08:56:24;;;;;;;11.05;4.68;;;0.90;87.10;;;;;;5039852;28;20045;-84
2021/01/10 08:58:56;;;;;;;10.13;4.72;;;0.90;86.80;;;;;;5048547;28;20049;-85
2021/01/10 09:01:26;;;;;;;12.10;4.10;;;0.90;87.20;;;;;;5043437;28;22671;-82
2021/01/10 09:04:04;;;;;;;12.02;4.68;;;1.00;87.00;;;;;;5042997;28;20053;-83
2021/01/10 09:06:48;;;;;;;9.02;4.57;;;1.00;86.80;;;;;;5041714;28;20049;-84
2021/01/10 09:09:35;;;;;;;12.23;5.43;;;1.10;86.40;;;;;;5042015;28;20050;-84
2021/01/10 09:12:06;;;;;;;14.00;4.97;;;1.10;86.20;;;;;;5027668;28;20108;-82
2021/01/10 09:14:44;;;;;;;10.50;4.20;;;1.10;85.70;;;;;;5027701;28;20053;-84
2021/01/10 09:17:15;;;;;;;13.43;6.57;;;1.00;86.20;;;;;;5030824;28;20340;-87
2021/01/10 09:19:43;;;;;;;13.63;4.93;;;1.20;86.10;;;;;;5027384;28;20057;-84
2021/01/10 09:22:10;;;;;;;13.68;5.88;;;1.20;86.00;;;;;;5044331;28;20049;-85
2021/01/10 09:24:40;;;;;;;12.13;5.05;;;1.00;86.00;;;;;;5043328;28;20088;-81
2021/01/10 09:27:13;;;;;;;9.52;3.83;;;1.00;87.00;;;;;;5043634;28;20160;-83
2021/01/10 09:29:41;;;;;;;11.35;4.63;;;1.20;86.20;;;;;;5027073;28;20061;-81
2021/01/10 09:32:08;;;;;;;12.82;5.65;;;1.30;85.40;;;;;;5059352;28;20308;-85
2021/01/10 09:34:35;;;;;;;16.00;5.10;;;1.40;85.30;;;;;;5041366;28;20284;-83
2021/01/10 09:37:04;;;;;;;10.73;3.92;;;1.40;85.10;;;;;;5019199;28;20288;-84
2021/01/10 09:39:40;;;;;;;13.98;5.57;;;1.40;84.80;;;;;;5034763;28;20433;-82
2021/01/10 09:42:07;;;;;;;14.55;5.05;;;1.30;85.10;;;;;;5038973;28;20859;-83
2021/01/10 09:44:35;;;;;;;9.80;4.90;;;1.20;85.20;;;;;;5023836;28;20061;-84
2021/01/10 09:47:03;;;;;;;6.65;3.35;;;1.20;85.60;;;;;;5042781;28;20091;-82
2021/01/10 09:49:33;;;;;;;11.85;5.32;;;1.20;85.40;;;;;;5045279;28;20061;-81
2021/01/10 09:52:06;;;;;;;10.02;4.00;;;1.20;85.30;;;;;;5040473;28;20077;-82
2021/01/10 09:54:35;;;;;;;10.20;5.22;;;1.20;85.10;;;;;;5027222;28;20062;-82
2021/01/10 09:57:16;;;;;;;13.30;5.68;;;1.30;85.10;;;;;;5061931;28;20049;-83
2021/01/10 09:59:44;;;;;;;11.25;3.80;;;1.30;85.00;;;;;;5046284;28;20365;-84
2021/01/10 10:02:19;;;;;;;10.73;4.88;;;1.40;84.90;;;;;;5044640;28;20117;-83
2021/01/10 10:04:48;;;;;;;13.95;5.65;;;1.50;84.60;;;;;;5041206;28;20057;-83
2021/01/10 10:07:29;;;;;;;13.77;5.22;;;1.40;84.70;;;;;;5022769;28;20349;-82
2021/01/10 10:09:56;;;;;;;9.70;4.25;;;1.60;84.20;;;;;;5039234;28;20057;-84
2021/01/10 10:12:24;;;;;;;13.05;4.88;;;1.70;83.70;;;;;;5042764;28;20029;-84
2021/01/10 10:14:56;;;;;;;12.05;4.90;;;1.90;83.30;;;;;;5040133;28;20288;-81
2021/01/10 10:17:28;;;;;;;16.45;5.53;;;2.10;82.60;;;;;;5040763;28;20061;-84
2021/01/10 10:19:55;;;;;;;18.80;6.72;;;2.20;82.30;;;;;;5044563;28;20049;-82
2021/01/10 10:22:31;;;;;;;14.43;6.28;;;2.40;81.70;;;;;;5044847;28;20080;-83
2021/01/10 10:24:58;;;;;;;13.45;5.85;;;3.50;79.70;;;;;;5040087;28;20487;-82
2021/01/10 10:27:27;;;;;;;10.70;4.93;;;4.50;75.10;;;;;;5039871;28;20056;-82
2021/01/10 10:29:54;;;;;;;9.98;4.57;;;4.10;74.80;;;;;;5035738;28;20060;-83
2021/01/10 10:32:24;;;;;;;13.82;5.38;;;4.80;74.00;;;;;;5035060;28;20058;-82
2021/01/10 10:34:52;;;;;;;11.38;5.75;;;5.50;70.90;;;;;;5037480;28;20045;-82
2021/01/10 10:37:23;;;;;;;13.07;5.80;;;5.70;69.50;;;;;;5036252;28;20103;-82
2021/01/10 10:39:50;;;;;;;9.38;3.75;;;4.90;70.10;;;;;;5053782;28;20088;-83
2021/01/10 10:42:19;;;;;;;12.35;6.03;;;5.50;70.40;;;;;;5028990;28;20054;-83
2021/01/10 10:44:46;;;;;;;11.82;6.10;;;6.30;67.50;;;;;;5032502;28;20392;-82
2021/01/10 10:47:14;;;;;;;16.08;5.35;;;5.70;67.80;;;;;;5037054;28;20057;-82
2021/01/10 10:49:43;;;;;;;14.82;5.97;;;5.90;68.40;;;;;;5042263;28;20222;-82
2021/01/10 10:52:12;;;;;;;10.48;4.90;;;6.50;65.60;;;;;;5043354;28;20305;-82
2021/01/10 10:54:40;;;;;;;14.23;6.05;;;6.30;66.10;;;;;;5044222;28;20392;-82
2021/01/10 10:57:07;;;;;;;12.65;5.88;;;6.30;65.40;;;;;;5025312;28;20076;-82
2021/01/10 10:59:39;;;;;;;10.80;5.32;;;6.60;65.80;;;;;;5040154;28;20045;-82
2021/01/10 11:02:10;;;;;;;11.32;5.18;;;7.40;61.60;;;;;;5032985;28;20049;-82
2021/01/10 11:04:41;;;;;;;11.05;5.00;;;6.40;63.60;;;;;;5022657;28;20061;-81
2021/01/10 11:07:10;;;;;;;13.13;5.72;;;5.90;64.80;;;;;;5017396;28;20045;-83
2021/01/10 11:09:37;;;;;;;9.75;4.97;;;5.70;66.20;;;;;;5054185;28;20238;-83
2021/01/10 11:12:08;;;;;;;13.05;6.28;;;5.50;67.10;;;;;;5038907;28;20045;-83
2021/01/10 11:14:42;;;;;;;13.38;5.85;;;5.40;66.90;;;;;;5020393;28;20080;-82
2021/01/10 11:17:10;;;;;;;9.73;5.38;;;5.00;68.60;;;;;;5039719;28;20204;-84
2021/01/10 11:19:38;;;;;;;10.25;5.10;;;4.80;69.50;;;;;;5042983;28;20104;-83
2021/01/10 11:22:07;;;;;;;13.35;5.40;;;4.80;69.10;;;;;;5039298;28;20095;-83
2021/01/10 11:24:36;;;;;;;12.07;4.85;;;4.90;69.10;;;;;;5024707;28;20088;-81
2021/01/10 11:27:04;;;;;;;11.75;5.60;;;5.00;68.90;;;;;;5024766;28;20057;-82
2021/01/10 11:29:32;;;;;;;12.05;5.55;;;4.90;69.30;;;;;;5041395;28;20144;-81
2021/01/10 11:31:59;;;;;;;12.55;5.75;;;5.00;68.90;;;;;;5050634;28;20037;-84
2021/01/10 11:34:28;;;;;;;17.25;6.63;;;5.00;69.00;;;;;;5040811;28;20061;-82
2021/01/10 11:36:56;;;;;;;12.93;6.20;;;5.00;68.90;;;;;;5044725;28;20341;-84
2021/01/10 11:39:25;;;;;;;11.20;5.35;;;4.90;69.00;;;;;;5042950;28;20087;-82
2021/01/10 11:41:56;;;;;;;11.77;5.18;;;5.20;68.40;;;;;;5039048;28;20045;-82
2021/01/10 11:44:24;;;;;;;12.05;4.55;;;5.10;67.60;;;;;;5040250;28;20329;-82
2021/01/10 11:46:56;;;;;;;10.25;5.25;;;4.90;67.80;;;;;;5044240;28;20052;-81
2021/01/10 11:49:28;;;;;;;9.75;4.70;;;5.90;66.30;;;;;;5045054;28;20061;-83
2021/01/10 11:51:56;;;;;;;10.38;5.18;;;7.70;60.50;;;;;;5050033;28;20046;-83
2021/01/10 11:54:23;;;;;;;13.35;6.57;;;8.90;56.90;;;;;;5040831;28;20049;-82
2021/01/10 11:56:50;;;;;;;14.90;6.07;;;9.50;53.80;;;;;;5040804;28;20057;-83
2021/01/10 11:59:18;;;;;;;11.73;4.93;;;10.50;52.30;;;;;;5037157;28;20121;-83
2021/01/10 12:01:45;;;;;;;12.05;5.35;;;11.20;48.60;;;;;;5038368;28;20049;-82
2021/01/10 12:04:12;;;;;;;10.85;6.15;;;11.50;47.70;;;;;;5041199;28;20088;-83
2021/01/10 12:06:40;;;;;;;12.30;5.97;;;11.40;46.70;;;;;;5037717;28;20360;-81
2021/01/10 12:09:10;;;;;;;13.55;5.75;;;11.10;49.40;;;;;;5032345;28;20064;-82
2021/01/10 12:11:38;;;;;;;13.05;6.43;;;11.80;46.10;;;;;;5015017;28;20137;-83
2021/01/10 12:14:05;;;;;;;12.57;5.45;;;12.10;44.50;;;;;;5036732;28;20284;-84
2021/01/10 12:16:35;;;;;;;11.05;5.15;;;12.40;43.60;;;;;;5016282;28;20057;-84
2021/01/10 12:19:02;;;;;;;10.23;4.73;;;12.40;41.50;;;;;;5017038;28;20057;-84
2021/01/10 12:21:29;;;;;;;10.35;4.03;;;12.10;42.20;;;;;;5012829;28;20730;-83
2021/01/10 12:23:56;;;;;;;9.80;5.10;;;12.10;42.80;;;;;;5035691;28;20050;-83
2021/01/10 12:26:26;;;;;;;12.05;5.40;;;12.10;42.50;;;;;;5048355;28;20052;-83
2021/01/10 12:28:53;;;;;;;11.13;4.50;;;12.20;41.60;;;;;;5029767;28;20254;-82
2021/01/10 12:31:20;;;;;;;10.10;5.03;;;12.20;41.10;;;;;;5032874;28;20356;-83
2021/01/10 12:33:48;;;;;;;11.48;5.18;;;12.20;40.60;;;;;;5031332;28;20107;-82
2021/01/10 12:36:15;;;;;;;12.95;5.63;;;12.10;40.70;;;;;;5037843;28;20057;-82
2021/01/10 12:38:42;;;;;;;12.52;4.97;;;12.20;40.80;;;;;;5038186;28;20064;-82
2021/01/10 12:41:09;;;;;;;10.68;4.55;;;12.40;39.50;;;;;;5039439;28;20063;-82
2021/01/10 12:43:36;;;;;;;12.65;5.47;;;12.30;39.80;;;;;;5041027;28;20353;-82
2021/01/10 12:46:03;;;;;;;10.57;5.00;;;12.40;39.60;;;;;;5038901;28;20050;-81
2021/01/10 12:48:32;;;;;;;9.85;4.88;;;12.50;39.70;;;;;;5036712;28;20394;-82
2021/01/10 12:51:00;;;;;;;10.65;5.40;;;12.50;39.90;;;;;;5040546;28;20244;-82
2021/01/10 12:53:28;;;;;;;9.93;4.45;;;12.40;39.60;;;;;;5042840;28;20260;-82
2021/01/10 12:55:54;;;;;;;12.05;4.82;;;12.30;40.10;;;;;;5040774;28;20049;-83